Time;durP1;ratioP1;P1;durP2;ratioP2;P2;SDS_P1;SDS_P2;PMS_P1;PMS_P2;Temp;Humidity;BMP_temperature;BMP_pressure;BME280_temperature;BME280_humidity;BME280_pressure;Samples;Min_cycle;Max_cycle;Signal;HPM_P1;HPM_P2
2023/03/13 09:59:50;;;;;;;4.15;0.77;;;;;;;12.27;61.38;96825.28;10312638;24;20145;-77
2023/03/13 10:05:22;;;;;;;5.47;0.98;;;;;;;12.53;61.26;96797.03;9913577;29;20499;-77
2023/03/13 10:10:44;;;;;;;5.57;1.00;;;;;;;12.73;60.72;96774.81;9896512;30;20058;-76
2023/03/13 10:16:30;;;;;;;4.50;1.13;;;;;;;13.38;60.23;96791.63;9864963;30;20055;-77
2023/03/13 10:21:52;;;;;;;6.75;1.13;;;;;;;14.16;58.85;96787.69;9874603;30;20079;-75
2023/03/13 10:27:13;;;;;;;4.20;0.90;;;;;;;13.98;58.16;96756.84;9886984;29;20085;-75
2023/03/13 10:32:34;;;;;;;4.35;0.90;;;;;;;14.00;57.81;96770.97;9884339;30;20101;-75
2023/03/13 10:38:09;;;;;;;3.60;0.77;;;;;;;13.71;57.51;96757.22;9884670;30;20075;-77
2023/03/13 10:43:30;;;;;;;5.38;1.00;;;;;;;13.56;58.28;96760.81;9861812;30;20052;-78
2023/03/13 10:55:10;;;;;;;2.20;0.43;;;;;;;13.27;58.93;96754.03;11135173;24;20132;-80
2023/03/13 11:00:38;;;;;;;2.13;0.55;;;;;;;13.54;58.76;96752.31;9856540;30;20055;-81
2023/03/13 11:12:21;;;;;;;1.80;0.50;;;;;;;13.56;58.81;96736.28;10769066;24;20056;-82
2023/03/13 11:24:04;;;;;;;2.47;0.50;;;;;;;14.14;58.14;96730.78;11351939;24;20067;-81
2023/03/13 11:37:33;;;;;;;4.65;0.63;;;;;;;14.43;57.68;96679.22;9894337;30;20051;-80
2023/03/13 11:42:58;;;;;;;2.58;0.43;;;;;;;14.49;57.05;96699.84;9884284;30;20051;-82
2023/03/13 11:48:50;;;;;;;1.85;0.38;;;;;;;14.22;57.40;96686.91;9872233;30;20059;-77
2023/03/13 11:54:22;;;;;;;1.63;0.40;;;;;;;14.12;57.71;96688.63;9862696;30;20066;-78
2023/03/13 12:00:15;;;;;;;3.80;0.40;;;;;;;13.87;58.54;96704.53;9877198;30;20051;-79
2023/03/13 12:05:44;;;;;;;2.30;0.47;;;;;;;13.70;58.70;96708.06;9830004;30;20109;-77
2023/03/13 12:11:08;;;;;;;1.95;0.60;;;;;;;13.77;59.41;96695.72;9849751;30;20105;-76
2023/03/13 12:16:45;;;;;;;2.60;0.52;;;;;;;14.09;58.82;96699.06;9877970;30;20043;-76
2023/03/13 12:22:17;;;;;;;1.88;0.40;;;;;;;14.43;58.66;96682.00;9858552;30;20117;-76
2023/03/13 12:27:41;;;;;;;1.08;0.43;;;;;;;14.52;58.08;96700.63;9853236;30;20059;-77
2023/03/13 12:33:25;;;;;;;1.83;0.32;;;;;;;14.45;57.94;96691.25;9829500;30;20055;-76
2023/03/13 12:38:51;;;;;;;3.35;0.40;;;;;;;14.65;57.75;96680.00;9864523;30;20513;-76
2023/03/13 12:44:18;;;;;;;0.98;0.30;;;;;;;14.60;57.29;96676.34;9840267;30;20074;-76
2023/03/13 12:50:23;;;;;;;0.95;0.30;;;;;;;14.50;57.37;96681.63;9849751;30;20492;-77
2023/03/13 12:56:03;;;;;;;1.60;0.50;;;;;;;14.41;57.51;96671.44;9834974;30;20120;-76
2023/03/13 13:01:29;;;;;;;1.15;0.38;;;;;;;14.40;57.85;96683.31;9842490;30;20048;-76
2023/03/13 13:07:02;;;;;;;1.52;0.40;;;;;;;14.32;57.55;96697.78;9889588;30;20055;-76
2023/03/13 13:12:23;;;;;;;2.88;0.47;;;;;;;14.29;58.03;96682.25;9868600;30;20046;-76
2023/03/13 13:18:05;;;;;;;2.28;0.40;;;;;;;14.26;58.03;96669.47;9890269;30;20051;-76
2023/03/13 13:23:32;;;;;;;1.27;0.40;;;;;;;14.53;58.13;96671.16;9823814;30;20113;-76
2023/03/13 13:28:57;;;;;;;2.45;0.50;;;;;;;14.62;57.66;96660.94;9854006;30;20491;-76
2023/03/13 13:34:29;;;;;;;2.83;0.40;;;;;;;14.76;57.62;96667.03;9878400;30;20491;-76
2023/03/13 13:39:51;;;;;;;2.17;0.40;;;;;;;14.70;57.25;96666.84;9879078;30;20048;-76
2023/03/13 13:45:15;;;;;;;2.50;0.50;;;;;;;14.90;57.07;96667.53;9828293;30;20071;-77
2023/03/13 13:50:37;;;;;;;5.10;1.10;;;;;;;14.77;57.18;96660.06;9853124;30;20055;-76
2023/03/13 13:55:59;;;;;;;7.82;0.55;;;;;;;14.91;57.46;96640.84;9815711;30;20063;-76
2023/03/13 14:01:19;;;;;;;1.95;0.60;;;;;;;14.91;56.80;96645.75;9828545;30;20078;-76
2023/03/13 14:06:41;;;;;;;3.33;0.73;;;;;;;14.48;57.38;96647.84;9817580;30;20051;-76
2023/03/13 14:12:29;;;;;;;2.80;0.60;;;;;;;14.29;58.07;96629.63;9842981;30;20063;-76
2023/03/13 14:17:54;;;;;;;2.45;0.70;;;;;;;14.21;57.87;96625.81;9852430;30;20101;-76
2023/03/13 14:23:15;;;;;;;1.77;0.60;;;;;;;14.19;58.37;96631.34;9874414;30;20072;-76
2023/03/13 14:28:39;;;;;;;3.08;0.68;;;;;;;14.43;58.50;96626.59;9861933;30;20086;-76
2023/03/13 14:34:07;;;;;;;3.03;0.50;;;;;;;14.64;58.18;96608.38;9873441;30;20135;-76
2023/03/13 14:39:31;;;;;;;3.72;0.60;;;;;;;14.48;57.95;96608.53;9860298;30;20059;-76
2023/03/13 14:44:53;;;;;;;2.08;0.43;;;;;;;14.58;58.16;96617.31;9873885;30;20055;-77
2023/03/13 14:50:14;;;;;;;1.60;0.40;;;;;;;14.62;57.98;96625.16;9861349;30;20070;-76
2023/03/13 14:55:39;;;;;;;2.92;0.77;;;;;;;14.74;57.64;96614.31;9824202;30;20419;-76
2023/03/13 15:01:10;;;;;;;2.22;0.65;;;;;;;15.08;57.81;96588.72;9834291;30;20461;-76
2023/03/13 15:06:31;;;;;;;2.15;0.70;;;;;;;15.57;57.05;96570.50;9852097;30;20056;-76
2023/03/13 15:11:52;;;;;;;2.47;0.95;;;;;;;15.60;55.76;96558.69;9842853;30;20059;-76
2023/03/13 15:17:19;;;;;;;2.90;0.60;;;;;;;15.30;55.65;96550.03;9853334;30;20411;-76
2023/03/13 15:22:42;;;;;;;1.85;0.52;;;;;;;14.99;56.17;96547.69;9853141;30;20048;-76
2023/03/13 15:28:05;;;;;;;1.15;0.47;;;;;;;14.76;56.42;96535.00;9863728;30;20052;-75
2023/03/13 15:33:26;;;;;;;3.65;0.70;;;;;;;14.60;57.06;96527.50;9872366;30;20129;-76
2023/03/13 15:38:48;;;;;;;3.42;0.60;;;;;;;14.59;57.08;96522.56;9871185;30;20075;-76
2023/03/13 15:45:13;;;;;;;3.25;0.60;;;;;;;14.47;57.10;96531.28;9884653;30;20036;-80
2023/03/13 15:51:45;;;;;;;5.45;0.80;;;;;;;14.32;57.70;96510.44;9931078;30;20055;-78
2023/03/13 15:57:08;;;;;;;2.10;0.63;;;;;;;14.09;58.06;96525.09;9842248;30;20044;-77
2023/03/13 16:02:31;;;;;;;3.10;1.20;;;;;;;13.91;58.66;96518.84;9842056;30;20048;-77
2023/03/13 16:07:52;;;;;;;2.42;1.23;;;;;;;13.79;58.78;96516.31;9853237;30;20461;-76
2023/03/13 16:13:13;;;;;;;5.65;1.30;;;;;;;13.73;59.00;96514.03;9855006;30;20499;-76
2023/03/13 16:18:34;;;;;;;3.60;0.90;;;;;;;13.69;59.54;96511.06;9866832;30;20415;-76
2023/03/13 16:23:55;;;;;;;4.45;0.77;;;;;;;13.59;59.42;96490.34;9854507;30;20059;-77
2023/03/13 16:29:15;;;;;;;4.13;1.20;;;;;;;13.50;59.63;96494.94;9880081;30;20052;-77
2023/03/13 16:35:05;;;;;;;1.38;0.65;;;;;;;13.47;59.66;96485.03;9872675;30;20055;-79
2023/03/13 16:40:30;;;;;;;2.08;0.80;;;;;;;13.40;59.95;96470.06;9874754;30;20395;-78
2023/03/13 16:45:52;;;;;;;3.47;1.00;;;;;;;13.27;60.06;96468.19;9881392;30;20071;-77
2023/03/13 16:51:18;;;;;;;2.33;0.80;;;;;;;13.16;60.70;96463.56;9906509;30;20032;-80
2023/03/13 17:03:04;;;;;;;3.33;0.80;;;;;;;12.96;60.97;96441.13;9828929;30;20088;-80
2023/03/13 17:14:32;;;;;;;2.00;0.65;;;;;;;12.71;62.32;96422.69;9817479;30;20116;-80
2023/03/13 17:20:29;;;;;;;4.68;1.15;;;;;;;12.68;62.09;96417.66;9812092;30;20056;-79
2023/03/13 17:25:50;;;;;;;3.90;1.33;;;;;;;12.59;61.97;96405.44;9789513;30;20056;-79
2023/03/13 17:31:13;;;;;;;2.70;0.98;;;;;;;12.57;62.37;96396.97;9814365;30;20039;-77
2023/03/13 17:36:44;;;;;;;2.07;1.10;;;;;;;12.53;62.71;96403.09;9810088;30;20049;-82
2023/03/13 17:42:30;;;;;;;5.05;1.80;;;;;;;12.51;63.12;96383.44;9819267;30;20061;-79
2023/03/13 17:47:53;;;;;;;3.80;1.63;;;;;;;12.50;63.31;96378.50;9800455;30;20053;-80
2023/03/13 17:53:17;;;;;;;4.25;1.10;;;;;;;12.51;63.54;96388.31;9794272;30;20055;-78
2023/03/13 17:58:38;;;;;;;4.95;1.73;;;;;;;12.47;63.44;96388.19;9777215;30;20072;-77
2023/03/13 18:10:21;;;;;;;4.18;1.65;;;;;;;12.25;63.79;96382.41;9940782;24;20063;-78
2023/03/13 18:16:29;;;;;;;3.88;1.38;;;;;;;12.14;63.92;96364.50;9942118;29;20047;-78
2023/03/13 18:21:52;;;;;;;3.75;1.58;;;;;;;12.06;64.30;96358.59;9896617;30;20403;-79
2023/03/13 18:27:17;;;;;;;4.90;1.93;;;;;;;11.98;64.46;96358.28;9881785;30;20095;-78
2023/03/13 18:32:38;;;;;;;4.28;1.73;;;;;;;11.91;64.54;96340.56;9855714;30;20056;-79
2023/03/13 18:38:28;;;;;;;3.28;1.73;;;;;;;11.86;64.49;96324.25;9893267;30;20079;-81
2023/03/13 18:44:05;;;;;;;5.10;1.85;;;;;;;11.84;64.85;96324.16;9891363;29;20052;-82
2023/03/13 18:50:30;;;;;;;4.45;2.00;;;;;;;11.81;64.89;96308.69;10521716;24;20097;-80
2023/03/13 19:02:16;;;;;;;5.22;2.45;;;;;;;11.83;65.29;96283.59;10159578;24;20070;-76
2023/03/13 19:07:39;;;;;;;3.72;2.00;;;;;;;11.81;65.01;96278.66;9841842;30;20057;-78
2023/03/13 19:13:03;;;;;;;4.90;1.67;;;;;;;11.86;65.00;96268.31;9846877;30;20082;-79
2023/03/13 19:58:47;;;;;;;3.65;1.65;;;;;;;11.84;65.35;96221.44;11418110;24;20123;-79
2023/03/13 20:04:13;;;;;;;2.70;1.08;;;;;;;11.80;65.00;96184.25;9891657;30;20074;-78
2023/03/13 20:09:37;;;;;;;2.60;1.20;;;;;;;11.74;65.13;96174.22;9901979;30;20066;-79
2023/03/13 20:15:08;;;;;;;2.92;1.35;;;;;;;11.67;65.07;96150.19;9887430;30;20059;-76
2023/03/13 20:20:59;;;;;;;3.53;1.48;;;;;;;11.61;65.30;96152.78;9904414;30;20059;-77
2023/03/13 20:26:48;;;;;;;4.47;1.80;;;;;;;11.53;65.38;96141.28;9892092;30;20093;-75
2023/03/13 20:32:10;;;;;;;2.97;1.60;;;;;;;11.50;65.48;96139.06;9899275;30;20059;-76
2023/03/13 20:37:31;;;;;;;4.35;1.67;;;;;;;11.46;65.24;96128.44;9875638;29;20085;-75
2023/03/13 20:42:52;;;;;;;3.60;1.83;;;;;;;11.43;64.87;96136.03;9905035;30;20062;-76
2023/03/13 20:48:16;;;;;;;5.20;1.48;;;;;;;11.40;65.33;96125.44;9904580;30;20471;-75
2023/03/13 20:53:38;;;;;;;4.63;1.60;;;;;;;11.38;64.95;96102.97;9905481;30;20063;-76
2023/03/13 20:58:58;;;;;;;5.32;2.35;;;;;;;11.37;64.88;96104.34;9890342;30;20063;-76
2023/03/13 21:04:19;;;;;;;5.53;1.98;;;;;;;11.34;64.77;96088.88;9892028;30;20475;-75
2023/03/13 21:09:40;;;;;;;6.10;2.05;;;;;;;11.33;64.59;96098.59;9903164;30;20062;-76
2023/03/13 21:15:03;;;;;;;8.50;2.30;;;;;;;11.32;64.65;96092.31;9892284;30;20376;-76
2023/03/13 21:20:28;;;;;;;5.35;2.35;;;;;;;11.30;64.38;96067.09;9891652;30;20090;-76
2023/03/13 21:25:57;;;;;;;3.97;1.98;;;;;;;11.26;64.15;96055.03;9904118;30;20063;-80
2023/03/13 21:32:18;;;;;;;3.33;1.95;;;;;;;11.26;64.09;96027.09;9920387;29;20063;-78
2023/03/13 21:38:39;;;;;;;4.28;2.15;;;;;;;11.25;63.93;96025.69;9914084;30;20059;-77
2023/03/13 21:44:28;;;;;;;4.15;2.17;;;;;;;11.29;64.15;96014.66;9903824;30;20063;-77
2023/03/13 21:50:20;;;;;;;3.78;1.80;;;;;;;11.35;63.38;96012.09;9894880;29;20398;-77
2023/03/13 21:56:16;;;;;;;5.75;2.17;;;;;;;11.34;63.65;96016.25;9895667;30;20063;-78
2023/03/13 22:01:37;;;;;;;3.95;1.95;;;;;;;11.18;63.81;96010.75;9887991;30;20384;-77
2023/03/13 22:07:01;;;;;;;3.35;1.60;;;;;;;11.11;63.76;96023.78;9888213;30;20110;-77
2023/03/13 22:12:56;;;;;;;4.18;1.85;;;;;;;11.20;63.61;96044.38;9899736;30;20083;-77
2023/03/13 22:19:17;;;;;;;5.03;1.73;;;;;;;11.25;63.63;96017.28;9903904;30;20112;-77
2023/03/13 22:25:39;;;;;;;4.68;1.85;;;;;;;11.26;63.74;96021.53;9903909;30;20059;-77
2023/03/13 22:31:30;;;;;;;5.90;2.10;;;;;;;11.30;63.85;96038.44;9911413;30;20084;-77
2023/03/13 22:37:52;;;;;;;27.20;8.80;;;;;;;11.39;63.85;96062.53;9892829;30;20051;-77
2023/03/13 22:43:13;;;;;;;9.68;3.15;;;;;;;11.42;63.80;96094.75;9911166;30;20083;-77
2023/03/13 22:49:06;;;;;;;4.35;1.95;;;;;;;11.43;64.23;96110.88;9892148;30;20051;-77
2023/03/13 22:54:28;;;;;;;6.28;2.58;;;;;;;11.34;64.48;96063.72;9885405;30;20499;-77
2023/03/13 22:59:49;;;;;;;5.57;2.70;;;;;;;11.27;64.76;96059.25;9885086;30;20407;-77
2023/03/13 23:05:38;;;;;;;5.53;2.83;;;;;;;11.23;65.75;96061.91;9892694;30;20419;-77
2023/03/13 23:11:27;;;;;;;10.88;3.00;;;;;;;11.22;65.66;96085.63;9893188;30;20146;-77
2023/03/13 23:17:16;;;;;;;9.20;3.08;;;;;;;11.21;65.53;96109.31;9901893;30;20051;-77
2023/03/13 23:23:06;;;;;;;6.32;2.60;;;;;;;11.19;65.93;96109.94;9900996;30;20051;-77
2023/03/13 23:28:55;;;;;;;6.28;2.58;;;;;;;11.17;65.95;96105.00;9891191;30;20059;-77
2023/03/13 23:34:20;;;;;;;6.10;2.50;;;;;;;11.17;66.12;96084.72;9910081;30;20123;-77
2023/03/13 23:39:43;;;;;;;5.72;2.55;;;;;;;11.13;66.29;96071.34;9910360;30;20075;-77
2023/03/13 23:45:34;;;;;;;6.75;2.80;;;;;;;11.15;66.84;96084.66;9901078;30;20051;-77
2023/03/13 23:51:27;;;;;;;7.43;3.33;;;;;;;11.16;67.84;96114.00;9896415;30;20142;-77
2023/03/13 23:57:16;;;;;;;5.70;2.95;;;;;;;11.13;67.56;96121.59;9900058;29;20059;-77
